Time;durP1;ratioP1;P1;durP2;ratioP2;P2;SDS_P1;SDS_P2;PMS_P1;PMS_P2;Temp;Humidity;BMP_temperature;BMP_pressure;BME280_temperature;BME280_humidity;BME280_pressure;Samples;Min_cycle;Max_cycle;Signal;HPM_P1;HPM_P2
2022/12/18 00:01:16;;;;;;;89.85;41.15;;;;;;;-6.48;100.00;102513.72;5010551;28;20053;-72
2022/12/18 00:03:42;;;;;;;92.22;43.40;;;;;;;-6.53;100.00;102497.47;5011742;28;20049;-71
2022/12/18 00:06:11;;;;;;;93.15;41.90;;;;;;;-6.51;100.00;102512.31;5006499;28;20055;-71
2022/12/18 00:08:38;;;;;;;90.53;40.60;;;;;;;-6.57;100.00;102510.59;5014657;28;20056;-72
2022/12/18 00:11:06;;;;;;;85.20;40.95;;;;;;;-6.62;100.00;102523.16;5004616;28;20049;-71
2022/12/18 00:13:33;;;;;;;93.00;42.63;;;;;;;-6.69;100.00;102525.13;5007523;28;20059;-71
2022/12/18 00:16:06;;;;;;;93.25;40.97;;;;;;;-6.72;100.00;102522.97;5012799;28;20104;-71
2022/12/18 00:18:32;;;;;;;94.47;42.65;;;;;;;-6.75;100.00;102528.81;5001993;28;20135;-71
2022/12/18 00:21:00;;;;;;;90.57;43.63;;;;;;;-6.81;100.00;102517.13;5009950;28;20048;-71
2022/12/18 00:23:28;;;;;;;87.03;43.30;;;;;;;-6.76;100.00;102522.59;5007709;28;20045;-71
2022/12/18 00:25:58;;;;;;;89.47;40.00;;;;;;;-6.80;100.00;102513.38;5007245;28;20052;-71
2022/12/18 00:28:24;;;;;;;91.18;43.15;;;;;;;-6.86;100.00;102503.56;5003947;28;20056;-70
2022/12/18 00:30:58;;;;;;;90.78;42.53;;;;;;;-6.83;100.00;102500.38;5003655;28;20136;-70
2022/12/18 00:33:25;;;;;;;88.80;41.00;;;;;;;-6.82;100.00;102498.53;5011936;28;20163;-71
2022/12/18 00:35:51;;;;;;;89.80;42.03;;;;;;;-6.93;100.00;102486.72;5010300;28;20778;-71
2022/12/18 00:38:18;;;;;;;91.28;41.10;;;;;;;-6.89;100.00;102498.66;5005286;28;20573;-69
2022/12/18 00:40:44;;;;;;;86.75;38.28;;;;;;;-6.82;100.00;102509.28;5007788;28;20053;-71
2022/12/18 00:43:11;;;;;;;81.60;39.53;;;;;;;-6.81;100.00;102513.63;5005796;28;20072;-72
2022/12/18 00:45:38;;;;;;;97.00;43.53;;;;;;;-6.87;100.00;102504.63;5003972;28;20049;-71
2022/12/18 00:48:04;;;;;;;94.35;44.05;;;;;;;-6.92;100.00;102520.66;5016847;28;20052;-71
2022/12/18 00:50:31;;;;;;;108.10;47.67;;;;;;;-7.00;100.00;102517.50;5005265;28;20805;-72
2022/12/18 00:52:57;;;;;;;116.43;50.55;;;;;;;-6.98;100.00;102510.03;5007649;28;20607;-71
2022/12/18 00:55:24;;;;;;;121.10;53.13;;;;;;;-7.01;100.00;102513.19;5006318;28;20461;-72
2022/12/18 00:57:52;;;;;;;98.18;43.28;;;;;;;-7.00;100.00;102518.34;5001958;28;20100;-72
2022/12/18 01:00:18;;;;;;;99.38;46.38;;;;;;;-7.03;100.00;102510.75;4994743;28;20049;-69
2022/12/18 01:02:45;;;;;;;101.13;45.70;;;;;;;-7.04;100.00;102516.34;4997036;28;20979;-71
2022/12/18 01:05:13;;;;;;;93.43;42.97;;;;;;;-7.10;100.00;102517.31;5005016;28;20051;-72
2022/12/18 01:07:40;;;;;;;90.45;44.17;;;;;;;-7.15;100.00;102519.91;5005240;28;20068;-71
2022/12/18 01:10:09;;;;;;;92.65;42.28;;;;;;;-7.21;100.00;102521.66;5003505;28;20577;-70
2022/12/18 01:12:35;;;;;;;89.78;43.05;;;;;;;-7.25;100.00;102522.38;5005191;28;20053;-70
2022/12/18 01:15:02;;;;;;;93.85;44.80;;;;;;;-7.27;100.00;102519.91;5002445;28;20049;-71
2022/12/18 01:17:29;;;;;;;88.07;41.05;;;;;;;-7.25;100.00;102515.13;5002497;28;20050;-71
2022/12/18 01:19:55;;;;;;;90.78;44.65;;;;;;;-7.27;100.00;102519.09;5008675;28;20044;-71
2022/12/18 01:22:22;;;;;;;90.65;42.25;;;;;;;-7.27;100.00;102513.69;5004420;28;20057;-71
2022/12/18 01:24:48;;;;;;;96.65;44.72;;;;;;;-7.24;100.00;102514.06;5007548;28;20056;-72
2022/12/18 01:27:15;;;;;;;86.57;40.22;;;;;;;-7.18;100.00;102517.69;5006541;28;20091;-71
2022/12/18 01:29:42;;;;;;;94.05;42.83;;;;;;;-7.16;100.00;102513.69;5014014;28;20076;-70
2022/12/18 01:32:09;;;;;;;84.40;41.38;;;;;;;-7.19;100.00;102516.06;5008108;28;20049;-71
2022/12/18 01:34:36;;;;;;;83.85;41.85;;;;;;;-7.12;100.00;102514.06;5005807;28;20063;-71
2022/12/18 01:37:04;;;;;;;87.38;40.97;;;;;;;-7.13;100.00;102513.22;5003609;28;20060;-71
2022/12/18 01:39:31;;;;;;;87.13;43.38;;;;;;;-7.15;100.00;102504.59;4998602;28;20056;-71
2022/12/18 01:42:18;;;;;;;81.97;40.78;;;;;;;-7.19;100.00;102502.59;5006011;28;20057;-70
2022/12/18 01:45:12;;;;;;;82.65;39.47;;;;;;;-7.25;100.00;102504.38;4992326;28;20107;-71
2022/12/18 01:47:41;;;;;;;86.32;38.22;;;;;;;-7.26;100.00;102504.59;4998450;28;20047;-71
2022/12/18 01:50:24;;;;;;;82.60;39.60;;;;;;;-7.30;100.00;102506.94;5000882;28;20187;-71
2022/12/18 01:53:05;;;;;;;82.55;41.80;;;;;;;-7.33;100.00;102504.72;5003883;28;20529;-70
2022/12/18 01:55:39;;;;;;;87.93;42.55;;;;;;;-7.34;100.00;102508.47;5008635;28;20048;-71
2022/12/18 01:58:06;;;;;;;76.57;39.10;;;;;;;-7.34;100.00;102499.56;5012710;28;20057;-71
2022/12/18 02:00:33;;;;;;;85.47;39.75;;;;;;;-7.37;100.00;102494.66;5008455;28;20056;-72
2022/12/18 02:03:00;;;;;;;83.95;39.45;;;;;;;-7.37;100.00;102505.41;5012324;28;20050;-72
2022/12/18 02:05:33;;;;;;;87.25;39.85;;;;;;;-7.36;100.00;102501.69;4995906;28;20501;-70
2022/12/18 02:08:22;;;;;;;91.78;43.15;;;;;;;-7.39;100.00;102491.41;5003453;28;20572;-71
2022/12/18 02:10:55;;;;;;;84.10;41.08;;;;;;;-7.39;100.00;102488.72;5006949;28;20060;-71
2022/12/18 02:13:44;;;;;;;79.65;37.63;;;;;;;-7.40;100.00;102490.56;5005805;28;20874;-71
2022/12/18 02:16:18;;;;;;;82.97;39.08;;;;;;;-7.52;100.00;102475.50;4996060;28;20058;-72
2022/12/18 02:18:51;;;;;;;79.10;38.75;;;;;;;-7.43;100.00;102501.00;5008740;28;20572;-73
2022/12/18 02:21:35;;;;;;;75.28;38.95;;;;;;;-7.44;100.00;102496.66;5008633;28;20086;-72
2022/12/18 02:24:50;;;;;;;59.97;28.75;;;;;;;-7.48;100.00;102484.75;5003392;28;20118;-72
2022/12/18 02:27:17;;;;;;;75.53;38.55;;;;;;;-7.53;100.00;102490.03;4955105;28;20051;-73
2022/12/18 02:29:47;;;;;;;79.07;39.35;;;;;;;-7.56;100.00;102483.22;4954392;28;20061;-71
2022/12/18 02:32:39;;;;;;;82.82;39.33;;;;;;;-7.56;100.00;102477.84;4977939;28;20838;-72
2022/12/18 02:35:10;;;;;;;91.53;42.38;;;;;;;-7.64;100.00;102467.47;5011297;28;20059;-71
2022/12/18 02:37:39;;;;;;;82.57;42.35;;;;;;;-7.62;100.00;102480.66;5006872;28;20057;-71
2022/12/18 02:40:08;;;;;;;75.10;37.22;;;;;;;-7.57;100.00;102483.47;5011720;28;20060;-71
2022/12/18 02:42:34;;;;;;;80.15;38.25;;;;;;;-7.62;100.00;102481.50;5007257;28;20675;-71
2022/12/18 02:45:01;;;;;;;80.80;39.45;;;;;;;-7.59;100.00;102499.84;4998636;28;20596;-71
2022/12/18 02:47:32;;;;;;;78.57;38.97;;;;;;;-7.56;100.00;102487.78;5014901;28;20049;-71
2022/12/18 02:50:13;;;;;;;77.57;38.08;;;;;;;-7.59;100.00;102491.78;5004313;28;20053;-71
2022/12/18 02:53:02;;;;;;;80.72;37.28;;;;;;;-7.69;100.00;102496.91;5011444;28;20064;-71
2022/12/18 02:55:37;;;;;;;79.85;39.70;;;;;;;-7.75;100.00;102497.84;4999782;28;20049;-72
2022/12/18 02:58:15;;;;;;;80.53;38.92;;;;;;;-7.75;100.00;102505.09;5003236;28;20045;-72
2022/12/18 03:00:54;;;;;;;80.78;39.55;;;;;;;-7.75;100.00;102497.03;5009505;28;20883;-70
2022/12/18 03:03:26;;;;;;;85.57;38.55;;;;;;;-7.70;100.00;102500.63;5029132;28;20049;-71
2022/12/18 03:05:59;;;;;;;79.22;38.83;;;;;;;-7.76;100.00;102482.78;5029620;28;20053;-70
2022/12/18 03:08:29;;;;;;;79.00;39.50;;;;;;;-7.66;100.00;102491.09;5031708;28;20045;-72
2022/12/18 03:11:09;;;;;;;73.95;38.55;;;;;;;-7.64;100.00;102497.03;5020998;28;20556;-70
2022/12/18 03:13:48;;;;;;;85.10;41.03;;;;;;;-7.66;100.00;102480.34;5036287;28;20414;-70
2022/12/18 03:16:22;;;;;;;73.10;36.80;;;;;;;-7.64;100.00;102483.59;5030045;28;20064;-71
2022/12/18 03:18:57;;;;;;;76.57;36.10;;;;;;;-7.57;100.00;102486.97;5029971;28;20061;-71
2022/12/18 03:21:37;;;;;;;74.47;35.70;;;;;;;-7.57;100.00;102494.25;5028576;28;20053;-71
2022/12/18 03:24:07;;;;;;;74.35;38.30;;;;;;;-7.60;100.00;102482.06;5029614;28;20410;-71
2022/12/18 03:26:39;;;;;;;75.22;37.03;;;;;;;-7.65;100.00;102481.13;5029030;28;20805;-70
2022/12/18 03:29:12;;;;;;;98.18;44.78;;;;;;;-7.67;100.00;102486.75;5021100;28;20053;-71
2022/12/18 03:31:45;;;;;;;80.40;40.50;;;;;;;-7.70;100.00;102478.34;5039165;28;20398;-71
2022/12/18 03:34:24;;;;;;;77.80;38.58;;;;;;;-7.68;100.00;102474.34;5033918;28;20079;-70
2022/12/18 03:36:50;;;;;;;79.60;40.22;;;;;;;-7.72;100.00;102459.75;5022734;28;20049;-71
2022/12/18 03:39:17;;;;;;;73.90;39.38;;;;;;;-7.73;100.00;102455.41;5009776;28;20054;-71
2022/12/18 03:41:50;;;;;;;76.35;37.38;;;;;;;-7.72;100.00;102464.31;5023967;28;20431;-71
2022/12/18 03:44:46;;;;;;;77.87;38.83;;;;;;;-7.75;100.00;102470.16;5029763;28;20063;-70
2022/12/18 03:47:41;;;;;;;79.53;38.50;;;;;;;-7.73;100.00;102474.22;5020158;28;20362;-71
2022/12/18 03:50:20;;;;;;;73.35;37.00;;;;;;;-7.70;100.00;102473.75;5022259;28;20049;-70
2022/12/18 03:53:02;;;;;;;69.13;36.60;;;;;;;-7.73;100.00;102478.81;5030124;28;20149;-70
2022/12/18 03:55:33;;;;;;;74.13;34.45;;;;;;;-7.75;100.00;102470.97;5028977;28;20067;-71
2022/12/18 03:58:03;;;;;;;74.95;37.15;;;;;;;-7.77;100.00;102473.06;5028998;28;20049;-70
2022/12/18 04:00:31;;;;;;;67.57;33.28;;;;;;;-7.76;100.00;102473.91;5027543;28;20053;-71
2022/12/18 04:03:01;;;;;;;78.28;36.70;;;;;;;-7.83;100.00;102474.03;5034525;28;20475;-70
2022/12/18 04:05:29;;;;;;;74.28;35.97;;;;;;;-7.89;100.00;102468.75;5025591;28;20050;-71
2022/12/18 04:07:57;;;;;;;69.38;34.92;;;;;;;-7.90;100.00;102475.97;5027830;28;20053;-70
2022/12/18 04:10:23;;;;;;;73.28;36.60;;;;;;;-7.89;100.00;102466.06;5028151;28;20499;-71
2022/12/18 04:12:50;;;;;;;74.55;34.17;;;;;;;-7.90;100.00;102467.13;5026840;28;20053;-71
2022/12/18 04:15:16;;;;;;;77.93;36.75;;;;;;;-7.91;100.00;102468.97;5029383;28;20049;-71
2022/12/18 04:17:48;;;;;;;72.53;36.03;;;;;;;-7.97;100.00;102455.66;5032319;28;20049;-71
2022/12/18 04:20:15;;;;;;;65.95;32.88;;;;;;;-7.95;100.00;102464.28;5018706;28;20545;-71
2022/12/18 04:22:42;;;;;;;74.50;37.58;;;;;;;-7.97;100.00;102463.72;5028181;28;20482;-70
2022/12/18 04:25:12;;;;;;;70.20;34.42;;;;;;;-7.98;100.00;102460.22;5034599;28;20060;-70
2022/12/18 04:27:39;;;;;;;78.40;35.20;;;;;;;-7.98;100.00;102460.22;5015523;28;20525;-70
2022/12/18 04:30:06;;;;;;;69.45;35.55;;;;;;;-8.01;100.00;102466.06;5028735;28;20037;-71
2022/12/18 04:32:34;;;;;;;73.20;36.55;;;;;;;-7.98;100.00;102468.28;5028425;28;20064;-71
2022/12/18 04:35:00;;;;;;;65.90;33.80;;;;;;;-7.96;100.00;102465.34;5028932;28;20072;-71
2022/12/18 04:37:27;;;;;;;71.82;36.33;;;;;;;-7.98;100.00;102470.13;5028061;28;20495;-71
2022/12/18 04:39:53;;;;;;;71.40;36.60;;;;;;;-8.03;100.00;102465.47;5026935;28;20053;-72
2022/12/18 04:42:20;;;;;;;75.45;35.28;;;;;;;-8.03;100.00;102472.72;5028360;28;20053;-69
2022/12/18 04:44:46;;;;;;;75.10;36.90;;;;;;;-8.08;100.00;102465.34;5034656;28;20049;-72
2022/12/18 04:47:12;;;;;;;69.88;36.72;;;;;;;-8.03;100.00;102467.34;5027811;28;20411;-72
2022/12/18 04:49:39;;;;;;;72.20;35.30;;;;;;;-8.06;100.00;102460.56;5027615;28;20525;-71
2022/12/18 04:52:09;;;;;;;76.30;37.38;;;;;;;-8.14;100.00;102444.78;5027645;28;20049;-70
2022/12/18 04:54:35;;;;;;;68.75;34.15;;;;;;;-7.99;100.00;102458.59;5028448;28;20565;-71
2022/12/18 04:57:02;;;;;;;73.90;34.45;;;;;;;-8.02;100.00;102453.69;5031106;28;20528;-70
2022/12/18 04:59:28;;;;;;;71.78;35.92;;;;;;;-8.00;100.00;102456.13;5019264;28;20498;-70
2022/12/18 05:01:55;;;;;;;75.28;37.67;;;;;;;-8.02;100.00;102459.06;5027013;28;20052;-71
2022/12/18 05:04:22;;;;;;;73.93;36.00;;;;;;;-8.08;100.00;102454.59;5028026;28;20057;-71
2022/12/18 05:06:48;;;;;;;69.32;34.70;;;;;;;-8.07;100.00;102456.22;5028073;28;20060;-71
2022/12/18 05:09:15;;;;;;;73.10;35.03;;;;;;;-8.07;100.00;102439.31;5027820;28;20058;-70
2022/12/18 05:11:41;;;;;;;75.13;37.08;;;;;;;-8.08;100.00;102441.16;5025062;28;20137;-71
2022/12/18 05:14:08;;;;;;;70.88;37.22;;;;;;;-8.06;100.00;102436.41;5026943;28;20049;-71
2022/12/18 05:16:34;;;;;;;70.60;35.97;;;;;;;-8.05;100.00;102438.03;5008716;28;20050;-71
2022/12/18 05:19:01;;;;;;;71.45;35.72;;;;;;;-8.03;100.00;102438.63;5007795;28;20054;-70
2022/12/18 05:21:27;;;;;;;67.03;34.83;;;;;;;-8.14;100.00;102417.91;5018121;28;20052;-70
2022/12/18 05:23:54;;;;;;;69.35;36.13;;;;;;;-7.99;100.00;102442.47;5027803;28;20144;-70
2022/12/18 05:26:20;;;;;;;67.88;35.20;;;;;;;-7.98;100.00;102437.91;5030212;28;20069;-71
2022/12/18 05:28:47;;;;;;;64.28;32.88;;;;;;;-7.95;100.00;102432.06;5017205;28;20058;-70
2022/12/18 05:31:13;;;;;;;72.10;34.80;;;;;;;-7.98;100.00;102435.22;5030802;28;20041;-71
2022/12/18 05:33:40;;;;;;;74.45;36.92;;;;;;;-8.02;100.00;102429.50;5030647;28;20099;-70
2022/12/18 05:36:08;;;;;;;76.38;36.05;;;;;;;-8.04;100.00;102431.59;5030861;28;20136;-70
2022/12/18 05:38:38;;;;;;;72.57;35.75;;;;;;;-8.10;100.00;102432.53;5031449;28;20099;-71
2022/12/18 05:41:05;;;;;;;62.85;32.15;;;;;;;-8.14;100.00;102434.03;5036070;28;20490;-70
2022/12/18 05:43:34;;;;;;;66.10;33.38;;;;;;;-8.12;100.00;102429.25;5032253;28;20057;-71
2022/12/18 05:46:11;;;;;;;64.85;33.10;;;;;;;-8.08;100.00;102440.34;5030637;28;20521;-71
2022/12/18 05:48:37;;;;;;;63.42;33.25;;;;;;;-8.11;100.00;102438.16;5023863;28;20060;-71
2022/12/18 05:51:06;;;;;;;69.05;32.47;;;;;;;-8.10;100.00;102445.97;5022519;28;20680;-70
2022/12/18 05:53:33;;;;;;;66.72;33.38;;;;;;;-8.08;100.00;102454.59;5033782;28;20050;-71
2022/12/18 05:56:02;;;;;;;65.70;35.83;;;;;;;-8.09;100.00;102452.97;5015746;28;20466;-71
2022/12/18 05:58:29;;;;;;;62.10;32.58;;;;;;;-8.09;100.00;102458.34;5011427;28;20080;-71
2022/12/18 06:00:56;;;;;;;69.60;34.08;;;;;;;-8.10;100.00;102455.88;5027286;28;20053;-72
2022/12/18 06:03:23;;;;;;;63.92;33.35;;;;;;;-8.13;100.00;102452.59;5036363;28;20400;-71
2022/12/18 06:05:57;;;;;;;60.63;31.58;;;;;;;-8.06;100.00;102460.56;5030130;28;20150;-71
2022/12/18 06:08:24;;;;;;;65.47;33.15;;;;;;;-8.04;100.00;102463.81;5031528;28;20064;-71
2022/12/18 06:10:54;;;;;;;66.35;32.60;;;;;;;-8.04;100.00;102466.50;5030168;28;20057;-71
2022/12/18 06:13:21;;;;;;;64.93;32.55;;;;;;;-8.07;100.00;102482.28;5029911;28;20046;-71
2022/12/18 06:15:48;;;;;;;56.58;29.92;;;;;;;-8.02;100.00;102485.91;5035985;28;20052;-71
2022/12/18 06:18:14;;;;;;;70.43;29.90;;;;;;;-8.03;100.00;102486.13;5031522;28;20564;-71
2022/12/18 06:20:41;;;;;;;58.92;29.08;;;;;;;-8.02;100.00;102495.81;5028214;28;20041;-71
2022/12/18 06:23:08;;;;;;;62.88;30.02;;;;;;;-8.06;100.00;102498.19;5032096;28;20052;-71
2022/12/18 06:25:38;;;;;;;63.92;30.05;;;;;;;-8.08;100.00;102500.25;5026553;28;20096;-71
2022/12/18 06:28:05;;;;;;;60.17;29.15;;;;;;;-8.08;100.00;102496.75;5011039;28;20054;-71
2022/12/18 06:30:31;;;;;;;60.30;28.65;;;;;;;-8.12;100.00;102496.41;5010433;28;20060;-71
2022/12/18 06:32:58;;;;;;;59.28;28.38;;;;;;;-8.14;100.00;102500.38;5031723;28;20048;-72
2022/12/18 06:35:24;;;;;;;59.13;29.75;;;;;;;-8.18;100.00;102503.53;5030479;28;20045;-69
2022/12/18 06:37:50;;;;;;;57.50;27.88;;;;;;;-8.17;100.00;102497.09;5030431;28;20049;-72
2022/12/18 06:40:17;;;;;;;55.15;29.13;;;;;;;-8.15;100.00;102491.50;5028907;28;20045;-71
2022/12/18 06:42:44;;;;;;;60.63;29.55;;;;;;;-8.21;100.00;102481.66;5030590;28;20057;-71
2022/12/18 06:45:11;;;;;;;58.05;29.55;;;;;;;-8.12;100.00;102488.34;5029788;28;20846;-71
2022/12/18 06:47:37;;;;;;;61.67;29.65;;;;;;;-8.18;100.00;102482.03;5029907;28;20502;-70
2022/12/18 06:50:05;;;;;;;60.78;28.67;;;;;;;-8.16;100.00;102477.25;5012272;28;20050;-72
2022/12/18 06:52:32;;;;;;;58.35;28.33;;;;;;;-8.14;100.00;102481.56;5023564;28;20052;-71
2022/12/18 06:54:59;;;;;;;58.38;29.10;;;;;;;-8.15;100.00;102472.69;5014311;28;20077;-69
2022/12/18 06:57:26;;;;;;;53.83;27.23;;;;;;;-8.22;100.00;102469.34;5027183;28;20049;-70
2022/12/18 06:59:52;;;;;;;57.05;28.70;;;;;;;-8.23;100.00;102468.50;5022699;28;20057;-71
2022/12/18 07:02:19;;;;;;;62.70;28.40;;;;;;;-8.21;100.00;102464.78;5028876;28;20049;-71
2022/12/18 07:04:46;;;;;;;55.28;28.67;;;;;;;-8.27;100.00;102456.59;5030115;28;20065;-71
2022/12/18 07:07:12;;;;;;;56.95;28.70;;;;;;;-8.26;100.00;102460.09;5030361;28;20057;-70
2022/12/18 07:09:39;;;;;;;60.97;31.17;;;;;;;-8.21;100.00;102454.03;5024572;28;20056;-71
2022/12/18 07:12:06;;;;;;;55.63;25.67;;;;;;;-8.19;100.00;102452.72;5025335;28;20042;-71
2022/12/18 07:14:33;;;;;;;55.97;28.27;;;;;;;-8.22;100.00;102450.53;5030292;28;20053;-71
2022/12/18 07:17:00;;;;;;;54.55;27.17;;;;;;;-8.26;100.00;102454.72;5029444;28;20053;-72
2022/12/18 07:19:26;;;;;;;55.53;27.98;;;;;;;-8.34;100.00;102436.25;5029592;28;20707;-71
2022/12/18 07:21:54;;;;;;;58.85;28.70;;;;;;;-8.25;100.00;102448.31;5028541;28;20062;-71
2022/12/18 07:24:20;;;;;;;61.78;29.77;;;;;;;-8.23;100.00;102448.91;5020743;28;20061;-71
2022/12/18 07:26:47;;;;;;;57.50;28.55;;;;;;;-8.27;100.00;102439.69;5029429;28;20053;-71
2022/12/18 07:29:14;;;;;;;51.47;28.90;;;;;;;-8.23;100.00;102447.00;5024839;28;20050;-71
2022/12/18 07:31:40;;;;;;;60.25;30.30;;;;;;;-8.20;100.00;102440.34;5028717;28;20133;-72
2022/12/18 07:34:12;;;;;;;59.33;26.95;;;;;;;-8.15;100.00;102443.16;5029633;28;20049;-71
2022/12/18 07:36:39;;;;;;;53.30;27.60;;;;;;;-8.11;100.00;102440.84;5029011;28;20482;-70
2022/12/18 07:39:05;;;;;;;57.45;29.27;;;;;;;-8.10;100.00;102440.59;5048032;28;20049;-70
2022/12/18 07:41:32;;;;;;;60.90;29.35;;;;;;;-8.09;100.00;102441.41;5021965;28;20175;-70
2022/12/18 07:43:59;;;;;;;52.53;26.55;;;;;;;-8.10;100.00;102437.91;5028578;28;20053;-70
2022/12/18 07:46:25;;;;;;;62.15;31.05;;;;;;;-8.07;100.00;102440.09;5029444;28;20060;-70
2022/12/18 07:48:52;;;;;;;60.22;28.45;;;;;;;-8.02;100.00;102442.94;5026099;28;20053;-70
2022/12/18 07:51:18;;;;;;;52.83;27.38;;;;;;;-8.00;100.00;102440.84;5026791;28;20049;-71
2022/12/18 07:53:45;;;;;;;53.47;27.17;;;;;;;-7.99;100.00;102442.47;5029861;28;20061;-71
2022/12/18 07:56:17;;;;;;;57.30;28.73;;;;;;;-7.96;100.00;102446.56;5030055;28;20083;-70
2022/12/18 07:58:53;;;;;;;56.20;26.90;;;;;;;-7.98;100.00;102454.84;5029446;28;20422;-69
2022/12/18 08:01:20;;;;;;;52.00;27.52;;;;;;;-7.94;100.00;102449.84;5027659;28;20495;-70
2022/12/18 08:03:47;;;;;;;56.03;27.05;;;;;;;-7.91;100.00;102436.72;5032378;28;20056;-71
2022/12/18 08:06:13;;;;;;;56.55;28.75;;;;;;;-7.86;100.00;102444.94;5030181;28;20052;-72
2022/12/18 08:08:42;;;;;;;55.38;28.25;;;;;;;-7.80;100.00;102445.84;5027631;28;20528;-72
2022/12/18 08:11:08;;;;;;;57.88;28.10;;;;;;;-7.76;100.00;102441.66;5025265;28;20129;-69
2022/12/18 08:13:35;;;;;;;57.28;28.58;;;;;;;-7.70;100.00;102444.19;5029036;28;20045;-70
2022/12/18 08:16:05;;;;;;;55.92;29.17;;;;;;;-7.61;100.00;102442.78;5028457;28;20111;-68
2022/12/18 08:18:36;;;;;;;55.17;27.50;;;;;;;-7.55;100.00;102447.25;5034208;28;20132;-70
2022/12/18 08:21:14;;;;;;;59.13;28.20;;;;;;;-7.51;100.00;102437.63;5028701;28;20046;-70
2022/12/18 08:23:41;;;;;;;59.75;28.38;;;;;;;-7.46;100.00;102431.56;5028654;28;20049;-70
2022/12/18 08:26:11;;;;;;;57.90;27.30;;;;;;;-7.39;100.00;102418.81;5027844;28;20049;-70
2022/12/18 08:28:37;;;;;;;55.63;27.63;;;;;;;-7.32;100.00;102414.94;5025211;28;20060;-70
2022/12/18 08:31:04;;;;;;;57.55;29.75;;;;;;;-7.23;100.00;102408.09;5027042;28;20042;-70
2022/12/18 08:33:32;;;;;;;54.35;27.13;;;;;;;-7.13;100.00;102404.81;5007972;28;20746;-70
2022/12/18 08:36:00;;;;;;;55.58;28.15;;;;;;;-7.07;100.00;102396.59;5032644;28;20041;-71
2022/12/18 08:38:26;;;;;;;56.55;27.40;;;;;;;-6.97;100.00;102399.47;5026646;28;20049;-70
2022/12/18 08:41:00;;;;;;;54.08;26.73;;;;;;;-6.93;100.00;102378.25;5027514;28;20046;-71
2022/12/18 08:46:15;;;;;;;51.30;26.73;;;;;;;-6.71;100.00;102387.28;5029191;28;20068;-70
2022/12/18 08:48:41;;;;;;;50.63;26.15;;;;;;;-6.61;100.00;102388.25;5025759;28;20127;-68
2022/12/18 08:51:09;;;;;;;53.22;25.48;;;;;;;-6.49;100.00;102388.19;5006799;28;20049;-72
2022/12/18 08:53:36;;;;;;;58.00;27.48;;;;;;;-6.42;100.00;102386.16;5025490;28;20045;-71
2022/12/18 08:56:05;;;;;;;51.83;26.13;;;;;;;-6.31;100.00;102390.66;5028033;28;20131;-69
2022/12/18 08:58:31;;;;;;;50.45;26.67;;;;;;;-6.18;100.00;102388.44;5032973;28;20057;-71
2022/12/18 09:01:06;;;;;;;46.40;24.40;;;;;;;-6.06;100.00;102391.03;5019180;28;20506;-71
2022/12/18 09:03:32;;;;;;;56.80;27.30;;;;;;;-5.95;100.00;102387.44;5022704;28;20542;-72
2022/12/18 09:05:59;;;;;;;52.67;25.92;;;;;;;-5.93;100.00;102363.75;5014475;28;20046;-71
2022/12/18 09:08:26;;;;;;;56.53;28.15;;;;;;;-5.69;100.00;102379.44;5025404;28;20099;-72
2022/12/18 09:10:53;;;;;;;52.85;26.48;;;;;;;-5.55;100.00;102382.56;5021483;28;20045;-71
2022/12/18 09:13:20;;;;;;;54.38;26.88;;;;;;;-5.41;100.00;102375.72;5024319;28;20050;-70
2022/12/18 09:15:56;;;;;;;50.75;26.90;;;;;;;-5.22;100.00;102378.91;5028040;28;20053;-70
2022/12/18 09:18:23;;;;;;;48.65;25.90;;;;;;;-5.06;100.00;102370.75;5027922;28;20057;-70
2022/12/18 09:20:52;;;;;;;49.25;26.25;;;;;;;-4.91;100.00;102361.97;5029380;28;20049;-70
2022/12/18 09:23:19;;;;;;;51.47;25.92;;;;;;;-4.78;100.00;102357.00;5022600;28;20044;-70
2022/12/18 09:25:45;;;;;;;48.95;26.50;;;;;;;-4.69;100.00;102351.94;5030026;28;20046;-72
2022/12/18 09:28:15;;;;;;;51.08;25.77;;;;;;;-4.55;100.00;102366.63;5029421;28;20064;-70
2022/12/18 09:30:47;;;;;;;54.30;25.35;;;;;;;-4.42;100.00;102361.59;5028607;28;20057;-69
2022/12/18 09:33:14;;;;;;;50.13;26.40;;;;;;;-4.30;100.00;102354.16;5040931;28;20521;-69
2022/12/18 09:35:42;;;;;;;55.45;26.10;;;;;;;-4.13;100.00;102349.41;5048253;28;20549;-70
2022/12/18 09:38:17;;;;;;;48.05;25.55;;;;;;;-3.94;100.00;102358.72;5023114;28;20088;-71
2022/12/18 09:40:48;;;;;;;52.08;28.38;;;;;;;-3.75;100.00;102359.91;5013896;28;20048;-71
2022/12/18 09:43:27;;;;;;;53.55;27.42;;;;;;;-3.55;100.00;102361.88;5012195;28;20056;-70
2022/12/18 09:46:06;;;;;;;50.67;27.38;;;;;;;-3.38;100.00;102357.09;5012844;28;20057;-71
2022/12/18 09:48:37;;;;;;;48.40;23.98;;;;;;;-3.23;100.00;102362.56;5036279;28;20049;-71
2022/12/18 09:51:18;;;;;;;42.95;24.00;;;;;;;-3.07;100.00;102370.44;5029261;28;20049;-72
2022/12/18 09:53:51;;;;;;;45.55;25.90;;;;;;;-2.91;100.00;102374.00;5033780;28;20056;-70
2022/12/18 09:56:22;;;;;;;46.38;24.55;;;;;;;-2.81;100.00;102372.16;5045149;28;20110;-71
2022/12/18 09:58:59;;;;;;;45.88;24.02;;;;;;;-2.64;100.00;102371.88;5037781;28;20057;-70
2022/12/18 10:01:28;;;;;;;70.35;32.45;;;;;;;-2.50;100.00;102374.91;5045205;28;20056;-70
2022/12/18 10:04:09;;;;;;;110.38;45.22;;;;;;;-2.34;100.00;102363.78;5040218;28;20041;-71
2022/12/18 10:06:46;;;;;;;78.28;35.17;;;;;;;-2.21;100.00;102365.13;5029340;28;20053;-71
2022/12/18 10:09:33;;;;;;;47.90;23.85;;;;;;;-2.45;100.00;102291.69;5027867;28;20059;-71
2022/12/18 10:12:22;;;;;;;46.17;23.17;;;;;;;-1.94;100.00;102342.03;5024185;28;20052;-71
2022/12/18 10:15:11;;;;;;;43.72;22.50;;;;;;;-1.83;100.00;102330.06;5026038;28;20056;-71
2022/12/18 10:17:40;;;;;;;48.75;24.35;;;;;;;-1.71;100.00;102329.75;5031427;28;20067;-71
2022/12/18 10:20:39;;;;;;;40.40;22.25;;;;;;;-1.61;100.00;102316.97;5033076;28;20053;-70
2022/12/18 10:23:14;;;;;;;43.10;21.73;;;;;;;-1.53;100.00;102318.28;5019114;28;20500;-73
2022/12/18 10:25:41;;;;;;;39.17;20.38;;;;;;;-1.46;100.00;102321.50;5034732;28;20525;-70
2022/12/18 10:28:12;;;;;;;33.17;17.23;;;;;;;-1.37;100.00;102315.22;5046635;28;20053;-70
2022/12/18 10:30:40;;;;;;;33.22;17.92;;;;;;;-1.28;100.00;102312.75;5027617;28;20768;-70
2022/12/18 10:33:18;;;;;;;37.22;17.77;;;;;;;-1.17;100.00;102306.97;5036272;28;20052;-69
2022/12/18 10:35:46;;;;;;;28.65;16.33;;;;;;;-1.08;100.00;102307.97;5035233;28;20065;-71
2022/12/18 10:38:16;;;;;;;31.70;16.35;;;;;;;-0.94;100.00;102300.81;5017828;28;20046;-71
2022/12/18 10:40:50;;;;;;;32.20;15.95;;;;;;;-0.83;100.00;102286.09;5018039;28;20056;-71
2022/12/18 10:43:25;;;;;;;34.90;18.33;;;;;;;-0.70;100.00;102282.72;5019708;28;20054;-72
2022/12/18 10:46:17;;;;;;;34.70;16.63;;;;;;;-0.54;100.00;102280.69;5027549;28;20053;-71
2022/12/18 10:48:46;;;;;;;30.35;15.88;;;;;;;-0.39;100.00;102278.63;5010155;28;20565;-71
2022/12/18 10:51:33;;;;;;;30.55;16.30;;;;;;;-0.12;100.00;102289.78;5028397;28;20049;-71
2022/12/18 10:54:01;;;;;;;29.00;15.88;;;;;;;0.32;100.00;102284.09;5028995;28;20244;-71
2022/12/18 10:56:31;;;;;;;32.83;17.70;;;;;;;0.73;100.00;102285.19;5030460;28;20766;-70
2022/12/18 10:59:06;;;;;;;32.17;16.58;;;;;;;0.96;100.00;102276.16;5028819;28;20057;-69
2022/12/18 11:02:22;;;;;;;30.80;15.45;;;;;;;1.11;100.00;102269.66;5031110;28;20046;-70
2022/12/18 11:04:50;;;;;;;;;;;;;;;1.18;100.00;102268.16;4982839;28;20065;-70
2022/12/18 11:07:17;;;;;;;31.58;17.27;;;;;;;1.17;100.00;102265.72;5027386;28;19925;-72
2022/12/18 11:09:43;;;;;;;30.38;16.95;;;;;;;1.06;100.00;102272.44;5027401;28;20072;-70
2022/12/18 11:12:10;;;;;;;31.08;16.45;;;;;;;0.99;100.00;102256.47;5023799;28;20051;-71
2022/12/18 11:14:46;;;;;;;31.73;15.85;;;;;;;0.87;100.00;102241.69;5028714;28;20053;-70
2022/12/18 11:17:27;;;;;;;29.02;16.10;;;;;;;0.87;100.00;102256.09;5027426;28;20489;-71
2022/12/18 11:20:09;;;;;;;29.92;16.33;;;;;;;0.79;100.00;102248.59;4987708;28;20059;-71